sensor_id;sensor_type;location;lat;lon;timestamp;P1;durP1;ratioP1;P2;durP2;ratioP2
35667;SDS011;22158;59.280;17.806;2022-10-16T00:00:32;18.17;;;11.63;;
35667;SDS011;22158;59.280;17.806;2022-10-16T00:02:59;21.02;;;13.60;;
35667;SDS011;22158;59.280;17.806;2022-10-16T00:05:25;16.50;;;11.23;;
35667;SDS011;22158;59.280;17.806;2022-10-16T00:07:51;18.00;;;11.93;;
35667;SDS011;22158;59.280;17.806;2022-10-16T00:10:16;21.00;;;12.20;;
35667;SDS011;22158;59.280;17.806;2022-10-16T00:12:42;19.58;;;11.75;;
35667;SDS011;22158;59.280;17.806;2022-10-16T00:15:08;20.13;;;11.77;;
35667;SDS011;22158;59.280;17.806;2022-10-16T00:17:34;19.05;;;10.35;;
35667;SDS011;22158;59.280;17.806;2022-10-16T00:19:59;15.95;;;9.63;;
35667;SDS011;22158;59.280;17.806;2022-10-16T00:22:25;19.80;;;12.05;;
35667;SDS011;22158;59.280;17.806;2022-10-16T00:24:51;16.70;;;11.00;;
35667;SDS011;22158;59.280;17.806;2022-10-16T00:27:16;16.48;;;10.40;;
35667;SDS011;22158;59.280;17.806;2022-10-16T00:29:42;15.18;;;10.57;;
35667;SDS011;22158;59.280;17.806;2022-10-16T00:32:08;19.85;;;11.57;;
35667;SDS011;22158;59.280;17.806;2022-10-16T00:34:34;21.02;;;11.25;;
35667;SDS011;22158;59.280;17.806;2022-10-16T00:37:00;22.40;;;11.38;;
35667;SDS011;22158;59.280;17.806;2022-10-16T00:39:26;18.00;;;11.05;;
35667;SDS011;22158;59.280;17.806;2022-10-16T00:41:51;17.15;;;10.50;;
35667;SDS011;22158;59.280;17.806;2022-10-16T00:47:15;16.15;;;10.20;;
35667;SDS011;22158;59.280;17.806;2022-10-16T00:49:44;24.52;;;13.07;;
35667;SDS011;22158;59.280;17.806;2022-10-16T00:52:12;20.00;;;12.85;;
35667;SDS011;22158;59.280;17.806;2022-10-16T00:54:39;22.35;;;12.02;;
35667;SDS011;22158;59.280;17.806;2022-10-16T00:57:06;19.23;;;13.48;;
35667;SDS011;22158;59.280;17.806;2022-10-16T00:59:37;23.38;;;12.52;;
35667;SDS011;22158;59.280;17.806;2022-10-16T01:02:05;22.55;;;14.15;;
35667;SDS011;22158;59.280;17.806;2022-10-16T01:04:43;23.67;;;14.52;;
35667;SDS011;22158;59.280;17.806;2022-10-16T01:20:51;21.73;;;12.85;;
35667;SDS011;22158;59.280;17.806;2022-10-16T01:23:36;23.63;;;14.85;;
35667;SDS011;22158;59.280;17.806;2022-10-16T01:26:20;24.85;;;14.93;;
35667;SDS011;22158;59.280;17.806;2022-10-16T01:31:42;25.88;;;12.65;;
35667;SDS011;22158;59.280;17.806;2022-10-16T01:34:15;22.92;;;13.38;;
35667;SDS011;22158;59.280;17.806;2022-10-16T01:36:47;20.33;;;12.52;;
35667;SDS011;22158;59.280;17.806;2022-10-16T01:39:19;21.00;;;13.05;;
35667;SDS011;22158;59.280;17.806;2022-10-16T01:42:09;23.80;;;12.93;;
35667;SDS011;22158;59.280;17.806;2022-10-16T01:44:36;20.35;;;12.93;;
35667;SDS011;22158;59.280;17.806;2022-10-16T01:47:03;23.95;;;12.80;;
35667;SDS011;22158;59.280;17.806;2022-10-16T01:49:33;20.25;;;11.77;;
35667;SDS011;22158;59.280;17.806;2022-10-16T01:52:02;19.50;;;12.82;;
35667;SDS011;22158;59.280;17.806;2022-10-16T01:54:32;17.25;;;11.02;;
35667;SDS011;22158;59.280;17.806;2022-10-16T01:57:00;19.40;;;11.95;;
35667;SDS011;22158;59.280;17.806;2022-10-16T01:59:28;17.15;;;11.43;;
35667;SDS011;22158;59.280;17.806;2022-10-16T02:02:00;17.27;;;10.73;;
35667;SDS011;22158;59.280;17.806;2022-10-16T02:04:34;17.90;;;11.48;;
35667;SDS011;22158;59.280;17.806;2022-10-16T02:07:04;16.98;;;11.02;;
35667;SDS011;22158;59.280;17.806;2022-10-16T02:09:34;16.92;;;10.05;;
35667;SDS011;22158;59.280;17.806;2022-10-16T02:12:03;14.90;;;10.88;;
35667;SDS011;22158;59.280;17.806;2022-10-16T02:14:37;18.77;;;11.20;;
35667;SDS011;22158;59.280;17.806;2022-10-16T02:17:14;15.75;;;9.65;;
35667;SDS011;22158;59.280;17.806;2022-10-16T02:19:42;15.88;;;11.00;;
35667;SDS011;22158;59.280;17.806;2022-10-16T02:22:09;17.73;;;10.05;;
35667;SDS011;22158;59.280;17.806;2022-10-16T02:24:43;16.23;;;10.38;;
35667;SDS011;22158;59.280;17.806;2022-10-16T02:30:12;15.27;;;10.38;;
35667;SDS011;22158;59.280;17.806;2022-10-16T02:32:56;16.10;;;10.00;;
35667;SDS011;22158;59.280;17.806;2022-10-16T02:35:25;20.25;;;11.15;;
35667;SDS011;22158;59.280;17.806;2022-10-16T02:37:52;14.77;;;10.00;;
35667;SDS011;22158;59.280;17.806;2022-10-16T02:40:19;13.43;;;9.50;;
35667;SDS011;22158;59.280;17.806;2022-10-16T02:42:49;15.02;;;9.70;;
35667;SDS011;22158;59.280;17.806;2022-10-16T02:45:18;14.80;;;9.35;;
35667;SDS011;22158;59.280;17.806;2022-10-16T02:47:44;13.07;;;8.75;;
35667;SDS011;22158;59.280;17.806;2022-10-16T02:50:10;14.95;;;10.50;;
35667;SDS011;22158;59.280;17.806;2022-10-16T02:52:36;17.52;;;9.93;;
35667;SDS011;22158;59.280;17.806;2022-10-16T02:55:02;17.33;;;10.35;;
35667;SDS011;22158;59.280;17.806;2022-10-16T02:57:27;17.30;;;10.50;;
35667;SDS011;22158;59.280;17.806;2022-10-16T02:59:53;20.90;;;11.45;;
35667;SDS011;22158;59.280;17.806;2022-10-16T03:02:19;18.70;;;11.52;;
35667;SDS011;22158;59.280;17.806;2022-10-16T03:04:45;19.00;;;10.38;;
35667;SDS011;22158;59.280;17.806;2022-10-16T03:07:10;18.55;;;9.63;;
35667;SDS011;22158;59.280;17.806;2022-10-16T03:09:36;16.83;;;11.20;;
35667;SDS011;22158;59.280;17.806;2022-10-16T03:12:02;15.55;;;9.85;;
35667;SDS011;22158;59.280;17.806;2022-10-16T03:14:28;18.05;;;11.48;;
35667;SDS011;22158;59.280;17.806;2022-10-16T03:16:54;18.42;;;10.32;;
35667;SDS011;22158;59.280;17.806;2022-10-16T03:19:19;14.93;;;10.05;;
35667;SDS011;22158;59.280;17.806;2022-10-16T03:21:45;16.65;;;9.88;;
35667;SDS011;22158;59.280;17.806;2022-10-16T03:24:11;15.23;;;9.60;;
35667;SDS011;22158;59.280;17.806;2022-10-16T03:26:36;16.35;;;9.60;;
35667;SDS011;22158;59.280;17.806;2022-10-16T03:29:02;14.00;;;8.32;;
35667;SDS011;22158;59.280;17.806;2022-10-16T03:31:28;14.40;;;9.85;;
35667;SDS011;22158;59.280;17.806;2022-10-16T03:33:54;12.73;;;8.40;;
35667;SDS011;22158;59.280;17.806;2022-10-16T03:36:20;18.08;;;10.93;;
35667;SDS011;22158;59.280;17.806;2022-10-16T03:38:46;18.25;;;9.73;;
35667;SDS011;22158;59.280;17.806;2022-10-16T03:41:11;16.48;;;9.25;;
35667;SDS011;22158;59.280;17.806;2022-10-16T03:43:37;18.35;;;9.25;;
35667;SDS011;22158;59.280;17.806;2022-10-16T03:46:03;15.00;;;8.82;;
35667;SDS011;22158;59.280;17.806;2022-10-16T03:48:28;17.83;;;9.00;;
35667;SDS011;22158;59.280;17.806;2022-10-16T03:50:54;15.02;;;9.02;;
35667;SDS011;22158;59.280;17.806;2022-10-16T03:53:20;13.68;;;8.45;;
35667;SDS011;22158;59.280;17.806;2022-10-16T03:55:46;12.82;;;7.57;;
35667;SDS011;22158;59.280;17.806;2022-10-16T03:58:11;14.40;;;9.52;;
35667;SDS011;22158;59.280;17.806;2022-10-16T04:00:44;13.65;;;9.15;;
35667;SDS011;22158;59.280;17.806;2022-10-16T04:03:12;11.95;;;7.78;;
35667;SDS011;22158;59.280;17.806;2022-10-16T04:05:37;13.25;;;8.25;;
35667;SDS011;22158;59.280;17.806;2022-10-16T04:08:03;12.30;;;8.88;;
35667;SDS011;22158;59.280;17.806;2022-10-16T04:10:29;13.00;;;8.10;;
35667;SDS011;22158;59.280;17.806;2022-10-16T04:12:55;13.23;;;7.32;;
35667;SDS011;22158;59.280;17.806;2022-10-16T04:15:21;12.95;;;7.85;;
35667;SDS011;22158;59.280;17.806;2022-10-16T04:17:48;11.55;;;6.78;;
35667;SDS011;22158;59.280;17.806;2022-10-16T04:20:14;10.25;;;6.85;;
35667;SDS011;22158;59.280;17.806;2022-10-16T04:22:40;12.10;;;7.97;;
35667;SDS011;22158;59.280;17.806;2022-10-16T04:25:05;13.35;;;7.78;;
35667;SDS011;22158;59.280;17.806;2022-10-16T04:27:31;12.57;;;7.35;;
35667;SDS011;22158;59.280;17.806;2022-10-16T04:29:58;11.60;;;6.88;;
35667;SDS011;22158;59.280;17.806;2022-10-16T04:32:24;11.85;;;6.47;;
35667;SDS011;22158;59.280;17.806;2022-10-16T04:34:50;11.05;;;6.43;;
35667;SDS011;22158;59.280;17.806;2022-10-16T04:37:16;12.43;;;7.05;;
35667;SDS011;22158;59.280;17.806;2022-10-16T04:39:42;10.38;;;6.40;;
35667;SDS011;22158;59.280;17.806;2022-10-16T04:42:07;11.82;;;6.90;;
35667;SDS011;22158;59.280;17.806;2022-10-16T04:44:33;10.63;;;7.70;;
35667;SDS011;22158;59.280;17.806;2022-10-16T04:46:59;8.77;;;6.65;;
35667;SDS011;22158;59.280;17.806;2022-10-16T04:49:24;9.50;;;5.57;;
35667;SDS011;22158;59.280;17.806;2022-10-16T04:51:50;12.57;;;6.57;;
35667;SDS011;22158;59.280;17.806;2022-10-16T04:54:15;7.53;;;5.53;;
35667;SDS011;22158;59.280;17.806;2022-10-16T04:56:41;9.65;;;6.88;;
35667;SDS011;22158;59.280;17.806;2022-10-16T05:01:41;10.20;;;6.85;;
35667;SDS011;22158;59.280;17.806;2022-10-16T05:04:07;11.40;;;6.28;;
35667;SDS011;22158;59.280;17.806;2022-10-16T05:06:33;10.30;;;6.47;;
35667;SDS011;22158;59.280;17.806;2022-10-16T05:08:58;10.98;;;7.28;;
35667;SDS011;22158;59.280;17.806;2022-10-16T05:11:24;9.35;;;6.20;;
35667;SDS011;22158;59.280;17.806;2022-10-16T05:13:49;12.02;;;7.35;;
35667;SDS011;22158;59.280;17.806;2022-10-16T05:16:15;14.40;;;7.00;;
35667;SDS011;22158;59.280;17.806;2022-10-16T05:18:41;12.63;;;7.03;;
35667;SDS011;22158;59.280;17.806;2022-10-16T05:21:07;12.48;;;7.45;;
35667;SDS011;22158;59.280;17.806;2022-10-16T05:23:32;10.13;;;7.55;;
35667;SDS011;22158;59.280;17.806;2022-10-16T05:25:58;12.15;;;8.98;;
35667;SDS011;22158;59.280;17.806;2022-10-16T05:28:25;12.25;;;7.00;;
35667;SDS011;22158;59.280;17.806;2022-10-16T05:30:55;12.13;;;7.55;;
35667;SDS011;22158;59.280;17.806;2022-10-16T05:33:22;14.80;;;8.32;;
35667;SDS011;22158;59.280;17.806;2022-10-16T05:35:50;12.50;;;8.32;;
35667;SDS011;22158;59.280;17.806;2022-10-16T05:38:16;14.77;;;8.57;;
35667;SDS011;22158;59.280;17.806;2022-10-16T05:40:42;11.63;;;7.60;;
35667;SDS011;22158;59.280;17.806;2022-10-16T05:43:08;15.23;;;8.63;;
35667;SDS011;22158;59.280;17.806;2022-10-16T05:45:34;14.32;;;9.15;;
35667;SDS011;22158;59.280;17.806;2022-10-16T05:48:00;14.65;;;8.52;;
35667;SDS011;22158;59.280;17.806;2022-10-16T05:50:26;14.52;;;8.75;;
35667;SDS011;22158;59.280;17.806;2022-10-16T05:52:52;17.55;;;8.07;;
35667;SDS011;22158;59.280;17.806;2022-10-16T05:55:17;16.23;;;9.82;;
35667;SDS011;22158;59.280;17.806;2022-10-16T05:57:43;19.00;;;11.13;;
35667;SDS011;22158;59.280;17.806;2022-10-16T06:00:09;18.08;;;10.95;;
35667;SDS011;22158;59.280;17.806;2022-10-16T06:02:35;16.83;;;10.70;;
35667;SDS011;22158;59.280;17.806;2022-10-16T06:05:01;15.60;;;10.57;;
35667;SDS011;22158;59.280;17.806;2022-10-16T06:07:26;18.92;;;12.60;;
35667;SDS011;22158;59.280;17.806;2022-10-16T06:09:52;15.88;;;10.82;;
35667;SDS011;22158;59.280;17.806;2022-10-16T06:12:18;19.38;;;11.55;;
35667;SDS011;22158;59.280;17.806;2022-10-16T06:14:45;22.38;;;12.77;;
35667;SDS011;22158;59.280;17.806;2022-10-16T06:17:14;22.30;;;13.82;;
35667;SDS011;22158;59.280;17.806;2022-10-16T06:19:40;21.30;;;13.45;;
35667;SDS011;22158;59.280;17.806;2022-10-16T06:22:06;20.83;;;11.48;;
35667;SDS011;22158;59.280;17.806;2022-10-16T06:24:32;22.58;;;13.25;;
35667;SDS011;22158;59.280;17.806;2022-10-16T06:26:57;28.27;;;13.40;;
35667;SDS011;22158;59.280;17.806;2022-10-16T06:29:23;20.63;;;11.73;;
35667;SDS011;22158;59.280;17.806;2022-10-16T06:31:49;22.45;;;13.88;;
35667;SDS011;22158;59.280;17.806;2022-10-16T06:34:14;21.38;;;12.00;;
35667;SDS011;22158;59.280;17.806;2022-10-16T06:36:40;19.63;;;12.57;;
35667;SDS011;22158;59.280;17.806;2022-10-16T06:39:08;19.52;;;13.57;;
35667;SDS011;22158;59.280;17.806;2022-10-16T06:41:34;24.23;;;13.10;;
35667;SDS011;22158;59.280;17.806;2022-10-16T06:44:00;22.38;;;12.20;;
35667;SDS011;22158;59.280;17.806;2022-10-16T06:46:26;18.63;;;11.55;;
35667;SDS011;22158;59.280;17.806;2022-10-16T06:48:52;20.13;;;11.32;;
35667;SDS011;22158;59.280;17.806;2022-10-16T06:51:19;18.98;;;11.48;;
35667;SDS011;22158;59.280;17.806;2022-10-16T06:53:47;18.08;;;11.25;;
35667;SDS011;22158;59.280;17.806;2022-10-16T06:58:47;17.90;;;10.82;;
35667;SDS011;22158;59.280;17.806;2022-10-16T07:01:14;20.73;;;11.65;;
35667;SDS011;22158;59.280;17.806;2022-10-16T07:03:41;18.95;;;10.98;;
35667;SDS011;22158;59.280;17.806;2022-10-16T07:06:09;19.98;;;11.23;;
35667;SDS011;22158;59.280;17.806;2022-10-16T07:08:37;15.80;;;10.55;;
35667;SDS011;22158;59.280;17.806;2022-10-16T07:11:05;17.38;;;10.75;;
35667;SDS011;22158;59.280;17.806;2022-10-16T07:13:36;17.00;;;11.35;;
35667;SDS011;22158;59.280;17.806;2022-10-16T07:16:07;18.48;;;10.77;;
35667;SDS011;22158;59.280;17.806;2022-10-16T07:18:34;14.18;;;9.40;;
35667;SDS011;22158;59.280;17.806;2022-10-16T07:21:05;16.63;;;9.80;;
35667;SDS011;22158;59.280;17.806;2022-10-16T07:23:36;15.88;;;9.85;;
35667;SDS011;22158;59.280;17.806;2022-10-16T07:26:03;18.17;;;9.75;;
35667;SDS011;22158;59.280;17.806;2022-10-16T07:28:30;16.25;;;9.88;;
35667;SDS011;22158;59.280;17.806;2022-10-16T07:31:01;16.13;;;8.90;;
35667;SDS011;22158;59.280;17.806;2022-10-16T07:33:28;14.45;;;9.05;;
35667;SDS011;22158;59.280;17.806;2022-10-16T07:35:54;10.93;;;8.38;;
35667;SDS011;22158;59.280;17.806;2022-10-16T07:38:20;15.32;;;8.15;;
35667;SDS011;22158;59.280;17.806;2022-10-16T07:40:46;13.15;;;8.38;;
35667;SDS011;22158;59.280;17.806;2022-10-16T07:43:13;11.65;;;7.43;;
35667;SDS011;22158;59.280;17.806;2022-10-16T07:45:46;10.32;;;7.47;;
35667;SDS011;22158;59.280;17.806;2022-10-16T07:48:16;12.05;;;6.93;;
35667;SDS011;22158;59.280;17.806;2022-10-16T07:50:43;10.48;;;6.65;;
35667;SDS011;22158;59.280;17.806;2022-10-16T07:53:09;10.55;;;6.75;;
35667;SDS011;22158;59.280;17.806;2022-10-16T07:55:35;10.77;;;6.85;;
35667;SDS011;22158;59.280;17.806;2022-10-16T07:58:01;11.48;;;5.93;;
35667;SDS011;22158;59.280;17.806;2022-10-16T08:00:27;8.57;;;5.53;;
35667;SDS011;22158;59.280;17.806;2022-10-16T08:02:53;9.90;;;6.22;;
35667;SDS011;22158;59.280;17.806;2022-10-16T08:05:18;29.52;;;7.53;;
35667;SDS011;22158;59.280;17.806;2022-10-16T08:07:50;8.35;;;5.65;;
35667;SDS011;22158;59.280;17.806;2022-10-16T08:10:17;7.47;;;5.43;;
35667;SDS011;22158;59.280;17.806;2022-10-16T08:12:44;11.02;;;5.60;;
35667;SDS011;22158;59.280;17.806;2022-10-16T08:15:09;12.60;;;6.25;;
35667;SDS011;22158;59.280;17.806;2022-10-16T08:17:35;13.68;;;6.18;;
35667;SDS011;22158;59.280;17.806;2022-10-16T08:20:01;6.40;;;4.63;;
35667;SDS011;22158;59.280;17.806;2022-10-16T08:22:27;7.00;;;4.95;;
35667;SDS011;22158;59.280;17.806;2022-10-16T08:24:53;7.13;;;4.97;;
35667;SDS011;22158;59.280;17.806;2022-10-16T08:27:19;15.48;;;5.05;;
35667;SDS011;22158;59.280;17.806;2022-10-16T08:29:44;7.68;;;5.10;;
35667;SDS011;22158;59.280;17.806;2022-10-16T08:32:10;8.07;;;5.53;;
35667;SDS011;22158;59.280;17.806;2022-10-16T08:34:36;8.80;;;5.07;;
35667;SDS011;22158;59.280;17.806;2022-10-16T08:37:01;7.75;;;4.20;;
35667;SDS011;22158;59.280;17.806;2022-10-16T08:39:27;7.93;;;5.07;;
35667;SDS011;22158;59.280;17.806;2022-10-16T08:49:59;8.82;;;5.20;;
35667;SDS011;22158;59.280;17.806;2022-10-16T08:52:33;8.52;;;4.45;;
35667;SDS011;22158;59.280;17.806;2022-10-16T08:55:03;10.20;;;5.10;;
35667;SDS011;22158;59.280;17.806;2022-10-16T08:57:29;8.52;;;5.20;;
35667;SDS011;22158;59.280;17.806;2022-10-16T08:59:58;9.32;;;4.50;;
35667;SDS011;22158;59.280;17.806;2022-10-16T09:02:34;6.95;;;4.10;;
35667;SDS011;22158;59.280;17.806;2022-10-16T09:08:13;6.18;;;3.80;;
35667;SDS011;22158;59.280;17.806;2022-10-16T09:10:57;9.10;;;3.85;;
35667;SDS011;22158;59.280;17.806;2022-10-16T09:16:36;8.13;;;4.40;;
35667;SDS011;22158;59.280;17.806;2022-10-16T09:21:43;10.30;;;4.30;;
35667;SDS011;22158;59.280;17.806;2022-10-16T09:24:17;5.43;;;4.07;;
35667;SDS011;22158;59.280;17.806;2022-10-16T09:26:44;7.68;;;4.20;;
35667;SDS011;22158;59.280;17.806;2022-10-16T09:29:11;7.60;;;4.20;;
35667;SDS011;22158;59.280;17.806;2022-10-16T09:31:41;5.32;;;3.50;;
35667;SDS011;22158;59.280;17.806;2022-10-16T09:34:14;11.77;;;4.50;;
35667;SDS011;22158;59.280;17.806;2022-10-16T09:36:59;9.27;;;3.40;;
35667;SDS011;22158;59.280;17.806;2022-10-16T09:39:28;9.40;;;3.67;;
35667;SDS011;22158;59.280;17.806;2022-10-16T09:41:53;5.18;;;2.85;;
35667;SDS011;22158;59.280;17.806;2022-10-16T09:44:24;7.35;;;4.47;;
35667;SDS011;22158;59.280;17.806;2022-10-16T09:47:03;5.85;;;3.92;;
35667;SDS011;22158;59.280;17.806;2022-10-16T09:49:30;8.80;;;3.45;;
35667;SDS011;22158;59.280;17.806;2022-10-16T09:52:05;8.43;;;3.53;;
35667;SDS011;22158;59.280;17.806;2022-10-16T09:55:01;16.70;;;6.05;;
35667;SDS011;22158;59.280;17.806;2022-10-16T09:57:48;6.00;;;3.08;;
35667;SDS011;22158;59.280;17.806;2022-10-16T10:00:17;9.68;;;3.60;;
35667;SDS011;22158;59.280;17.806;2022-10-16T10:02:44;5.60;;;3.15;;
35667;SDS011;22158;59.280;17.806;2022-10-16T10:05:17;7.13;;;3.88;;
35667;SDS011;22158;59.280;17.806;2022-10-16T10:07:58;3.47;;;2.72;;
35667;SDS011;22158;59.280;17.806;2022-10-16T10:10:31;6.43;;;3.55;;
35667;SDS011;22158;59.280;17.806;2022-10-16T10:13:20;5.60;;;3.33;;
35667;SDS011;22158;59.280;17.806;2022-10-16T10:15:49;10.02;;;3.38;;
35667;SDS011;22158;59.280;17.806;2022-10-16T10:18:19;5.78;;;3.38;;
35667;SDS011;22158;59.280;17.806;2022-10-16T10:20:56;6.75;;;3.40;;
35667;SDS011;22158;59.280;17.806;2022-10-16T10:23:27;7.88;;;2.90;;
35667;SDS011;22158;59.280;17.806;2022-10-16T10:40:02;6.88;;;2.33;;
35667;SDS011;22158;59.280;17.806;2022-10-16T10:42:59;5.95;;;2.55;;
35667;SDS011;22158;59.280;17.806;2022-10-16T10:53:21;7.03;;;2.38;;
35667;SDS011;22158;59.280;17.806;2022-10-16T10:55:54;5.82;;;2.33;;
35667;SDS011;22158;59.280;17.806;2022-10-16T10:58:56;10.75;;;3.40;;
35667;SDS011;22158;59.280;17.806;2022-10-16T11:01:49;10.38;;;3.45;;
35667;SDS011;22158;59.280;17.806;2022-10-16T11:07:07;5.82;;;2.67;;
35667;SDS011;22158;59.280;17.806;2022-10-16T11:10:02;5.15;;;2.50;;
35667;SDS011;22158;59.280;17.806;2022-10-16T11:12:38;7.65;;;3.15;;
35667;SDS011;22158;59.280;17.806;2022-10-16T11:15:20;8.20;;;3.33;;
35667;SDS011;22158;59.280;17.806;2022-10-16T11:20:40;13.10;;;2.92;;
35667;SDS011;22158;59.280;17.806;2022-10-16T11:23:22;4.85;;;2.80;;
35667;SDS011;22158;59.280;17.806;2022-10-16T11:25:56;16.42;;;3.63;;
35667;SDS011;22158;59.280;17.806;2022-10-16T11:31:08;5.50;;;3.78;;
35667;SDS011;22158;59.280;17.806;2022-10-16T11:33:55;11.48;;;2.70;;
35667;SDS011;22158;59.280;17.806;2022-10-16T11:38:55;10.57;;;3.45;;
35667;SDS011;22158;59.280;17.806;2022-10-16T11:47:37;8.30;;;2.53;;
35667;SDS011;22158;59.280;17.806;2022-10-16T11:51:00;9.88;;;2.88;;
35667;SDS011;22158;59.280;17.806;2022-10-16T11:55:46;7.72;;;2.30;;
35667;SDS011;22158;59.280;17.806;2022-10-16T11:58:17;5.35;;;2.75;;
35667;SDS011;22158;59.280;17.806;2022-10-16T12:03:44;10.30;;;2.63;;
35667;SDS011;22158;59.280;17.806;2022-10-16T12:08:58;6.43;;;3.00;;
35667;SDS011;22158;59.280;17.806;2022-10-16T12:16:38;5.68;;;3.83;;
35667;SDS011;22158;59.280;17.806;2022-10-16T12:19:25;7.20;;;3.55;;
35667;SDS011;22158;59.280;17.806;2022-10-16T12:21:54;5.68;;;2.63;;
35667;SDS011;22158;59.280;17.806;2022-10-16T12:24:38;7.43;;;4.45;;
35667;SDS011;22158;59.280;17.806;2022-10-16T12:29:59;7.38;;;3.03;;
35667;SDS011;22158;59.280;17.806;2022-10-16T12:32:35;8.52;;;4.07;;
35667;SDS011;22158;59.280;17.806;2022-10-16T12:35:03;9.02;;;3.17;;
35667;SDS011;22158;59.280;17.806;2022-10-16T12:37:36;8.18;;;2.88;;
35667;SDS011;22158;59.280;17.806;2022-10-16T12:40:13;4.65;;;2.75;;
35667;SDS011;22158;59.280;17.806;2022-10-16T12:42:41;6.35;;;2.60;;
35667;SDS011;22158;59.280;17.806;2022-10-16T12:45:22;4.97;;;3.08;;
35667;SDS011;22158;59.280;17.806;2022-10-16T12:47:52;6.80;;;2.90;;
35667;SDS011;22158;59.280;17.806;2022-10-16T12:52:57;9.05;;;3.90;;
35667;SDS011;22158;59.280;17.806;2022-10-16T12:55:23;6.07;;;2.70;;
35667;SDS011;22158;59.280;17.806;2022-10-16T13:00:25;8.77;;;2.88;;
35667;SDS011;22158;59.280;17.806;2022-10-16T13:17:27;5.70;;;2.10;;
35667;SDS011;22158;59.280;17.806;2022-10-16T13:25:36;7.25;;;2.50;;
35667;SDS011;22158;59.280;17.806;2022-10-16T13:28:11;5.25;;;3.10;;
35667;SDS011;22158;59.280;17.806;2022-10-16T13:30:39;6.40;;;2.28;;
35667;SDS011;22158;59.280;17.806;2022-10-16T13:35:35;6.03;;;1.85;;
35667;SDS011;22158;59.280;17.806;2022-10-16T13:38:15;6.43;;;2.13;;
35667;SDS011;22158;59.280;17.806;2022-10-16T13:43:20;7.88;;;2.63;;
35667;SDS011;22158;59.280;17.806;2022-10-16T13:45:53;6.80;;;1.92;;
35667;SDS011;22158;59.280;17.806;2022-10-16T13:48:20;9.10;;;2.28;;
35667;SDS011;22158;59.280;17.806;2022-10-16T13:50:45;3.55;;;1.90;;
35667;SDS011;22158;59.280;17.806;2022-10-16T13:53:14;7.10;;;2.40;;
35667;SDS011;22158;59.280;17.806;2022-10-16T13:55:40;4.43;;;2.10;;
35667;SDS011;22158;59.280;17.806;2022-10-16T13:58:12;6.40;;;2.17;;
35667;SDS011;22158;59.280;17.806;2022-10-16T14:00:39;7.53;;;2.25;;
35667;SDS011;22158;59.280;17.806;2022-10-16T14:03:13;7.85;;;2.50;;
35667;SDS011;22158;59.280;17.806;2022-10-16T14:05:48;4.30;;;1.92;;
35667;SDS011;22158;59.280;17.806;2022-10-16T14:08:16;4.57;;;2.20;;
35667;SDS011;22158;59.280;17.806;2022-10-16T14:10:42;7.85;;;2.65;;
35667;SDS011;22158;59.280;17.806;2022-10-16T14:13:13;6.25;;;2.17;;
35667;SDS011;22158;59.280;17.806;2022-10-16T14:15:46;6.03;;;2.40;;
35667;SDS011;22158;59.280;17.806;2022-10-16T14:18:21;5.85;;;1.90;;
35667;SDS011;22158;59.280;17.806;2022-10-16T14:20:49;3.78;;;1.92;;
35667;SDS011;22158;59.280;17.806;2022-10-16T14:23:37;3.85;;;2.13;;
35667;SDS011;22158;59.280;17.806;2022-10-16T14:28:34;2.78;;;2.17;;
35667;SDS011;22158;59.280;17.806;2022-10-16T14:31:02;3.90;;;2.13;;
35667;SDS011;22158;59.280;17.806;2022-10-16T14:33:44;7.35;;;2.10;;
35667;SDS011;22158;59.280;17.806;2022-10-16T14:38:40;10.07;;;2.58;;
35667;SDS011;22158;59.280;17.806;2022-10-16T14:41:08;4.43;;;1.90;;
35667;SDS011;22158;59.280;17.806;2022-10-16T14:43:35;7.35;;;2.08;;
35667;SDS011;22158;59.280;17.806;2022-10-16T14:46:03;8.38;;;2.08;;
35667;SDS011;22158;59.280;17.806;2022-10-16T14:48:36;6.57;;;2.30;;
35667;SDS011;22158;59.280;17.806;2022-10-16T14:51:08;7.28;;;2.67;;
35667;SDS011;22158;59.280;17.806;2022-10-16T14:53:39;5.40;;;2.33;;
35667;SDS011;22158;59.280;17.806;2022-10-16T14:56:06;5.72;;;2.53;;
35667;SDS011;22158;59.280;17.806;2022-10-16T14:59:01;6.90;;;2.40;;
35667;SDS011;22158;59.280;17.806;2022-10-16T15:01:27;8.65;;;2.15;;
35667;SDS011;22158;59.280;17.806;2022-10-16T15:03:53;4.90;;;2.60;;
35667;SDS011;22158;59.280;17.806;2022-10-16T15:06:20;7.85;;;2.85;;
35667;SDS011;22158;59.280;17.806;2022-10-16T15:08:49;7.32;;;2.97;;
35667;SDS011;22158;59.280;17.806;2022-10-16T15:11:16;9.88;;;2.53;;
35667;SDS011;22158;59.280;17.806;2022-10-16T15:13:44;6.15;;;2.30;;
35667;SDS011;22158;59.280;17.806;2022-10-16T15:16:17;11.98;;;2.10;;
35667;SDS011;22158;59.280;17.806;2022-10-16T15:18:43;9.73;;;1.67;;
35667;SDS011;22158;59.280;17.806;2022-10-16T15:21:15;8.65;;;1.50;;
35667;SDS011;22158;59.280;17.806;2022-10-16T15:23:49;2.53;;;1.07;;
35667;SDS011;22158;59.280;17.806;2022-10-16T15:26:15;1.60;;;1.25;;
35667;SDS011;22158;59.280;17.806;2022-10-16T15:28:41;1.17;;;0.80;;
35667;SDS011;22158;59.280;17.806;2022-10-16T15:31:07;5.38;;;0.93;;
35667;SDS011;22158;59.280;17.806;2022-10-16T15:33:33;3.13;;;0.98;;
35667;SDS011;22158;59.280;17.806;2022-10-16T15:36:00;3.83;;;1.13;;
35667;SDS011;22158;59.280;17.806;2022-10-16T15:38:27;2.67;;;0.82;;
35667;SDS011;22158;59.280;17.806;2022-10-16T15:40:53;1.80;;;1.38;;
35667;SDS011;22158;59.280;17.806;2022-10-16T15:43:19;2.92;;;1.10;;
35667;SDS011;22158;59.280;17.806;2022-10-16T15:48:31;5.18;;;1.30;;
35667;SDS011;22158;59.280;17.806;2022-10-16T15:50:57;4.07;;;1.30;;
35667;SDS011;22158;59.280;17.806;2022-10-16T15:53:23;3.40;;;1.30;;
35667;SDS011;22158;59.280;17.806;2022-10-16T15:55:48;5.20;;;1.20;;
35667;SDS011;22158;59.280;17.806;2022-10-16T15:58:14;1.13;;;0.98;;
35667;SDS011;22158;59.280;17.806;2022-10-16T16:00:40;3.95;;;1.75;;
35667;SDS011;22158;59.280;17.806;2022-10-16T16:03:05;3.72;;;0.88;;
35667;SDS011;22158;59.280;17.806;2022-10-16T16:05:31;1.88;;;1.05;;
35667;SDS011;22158;59.280;17.806;2022-10-16T16:07:58;5.40;;;1.30;;
35667;SDS011;22158;59.280;17.806;2022-10-16T16:10:24;1.65;;;1.00;;
35667;SDS011;22158;59.280;17.806;2022-10-16T16:12:49;2.58;;;1.20;;
35667;SDS011;22158;59.280;17.806;2022-10-16T16:15:21;3.55;;;1.05;;
35667;SDS011;22158;59.280;17.806;2022-10-16T16:17:48;2.58;;;1.70;;
35667;SDS011;22158;59.280;17.806;2022-10-16T16:20:14;2.95;;;0.90;;
35667;SDS011;22158;59.280;17.806;2022-10-16T16:22:40;5.60;;;1.10;;
35667;SDS011;22158;59.280;17.806;2022-10-16T16:25:06;1.27;;;0.70;;
35667;SDS011;22158;59.280;17.806;2022-10-16T16:27:32;6.30;;;1.23;;
35667;SDS011;22158;59.280;17.806;2022-10-16T16:29:59;3.28;;;1.10;;
35667;SDS011;22158;59.280;17.806;2022-10-16T16:32:28;5.82;;;1.13;;
35667;SDS011;22158;59.280;17.806;2022-10-16T16:34:54;5.13;;;1.00;;
35667;SDS011;22158;59.280;17.806;2022-10-16T16:37:20;2.15;;;1.05;;
35667;SDS011;22158;59.280;17.806;2022-10-16T16:39:45;3.92;;;0.80;;
35667;SDS011;22158;59.280;17.806;2022-10-16T16:42:11;2.28;;;0.90;;
35667;SDS011;22158;59.280;17.806;2022-10-16T16:44:37;1.20;;;0.73;;
35667;SDS011;22158;59.280;17.806;2022-10-16T16:47:03;2.40;;;0.85;;
35667;SDS011;22158;59.280;17.806;2022-10-16T16:49:29;1.30;;;0.70;;
35667;SDS011;22158;59.280;17.806;2022-10-16T16:51:55;1.70;;;0.95;;